Main page
METAR-TAF:

METAR-TAF

Airports :

Garoua International Airport

Garoua, Cameroon

latitude: 09-20N, longitude: 013-23E, elevation: 242 m

METAR: missing

Time: 11:01 (10:01 UTC)

Forecast

The report was made 5 hours and 1 minutes ago, at 05:00 UTC
Forecast valid from 27 at 06 UTC to 27 at 18 UTC
Wind 4 kt from variable directions
Visibility: 8000 m
Temporary
from 27 at 08 UTC to 27 at 14 UTC
Visibility: 4000 m
widespread dust,

TAF: FKKR 270500Z 2706/2718 VRB04KT 8000 NSC TEMPO 2708/2714 4000 DU

Weather observations and forecasts of more than 4000 airports (METAR and TAF reports).

The available stations are represented by yellow and red dots on the map.

Hover mouse over dot to see the name of the station.

Then click to see weather observations and forecasts.

To change the map : click on the green buttons with a black cross to zoom in, on the green button with a dash to zoom out, or on the green arrows for adjacent maps.


METAR-TAF: